Time;durP1;ratioP1;P1;durP2;ratioP2;P2;SDS_P1;SDS_P2;PMS_P1;PMS_P2;Temp;Humidity;BMP_temperature;BMP_pressure;BME280_temperature;BME280_humidity;BME280_pressure;Samples;Min_cycle;Max_cycle;Signal;HPM_P1;HPM_P2
2022/04/29 00:00:46;;;;;;;;;;;9.00;99.90;;;;;;5045390;28;19944;-73
2022/04/29 00:03:13;;;;;;;;;;;;;;;;;;5049575;28;19925;-74
2022/04/29 00:05:40;;;;;;;;;;;9.10;99.90;;;;;;5048246;28;19932;-74
2022/04/29 00:08:08;;;;;;;;;;;;;;;;;;5044429;28;19983;-73
2022/04/29 00:10:36;;;;;;;;;;;9.10;99.90;;;;;;5056789;28;20411;-75
2022/04/29 00:13:03;;;;;;;;;;;;;;;;;;5052109;28;20010;-75
2022/04/29 00:15:30;;;;;;;;;;;;;;;;;;5050814;28;19921;-74
2022/04/29 00:17:57;;;;;;;;;;;;;;;;;;5051698;28;20044;-75
2022/04/29 00:20:24;;;;;;;;;;;;;;;;;;5065757;28;20384;-74
2022/04/29 00:22:51;;;;;;;;;;;;;;;;;;5048463;28;19931;-74
2022/04/29 00:25:18;;;;;;;;;;;9.10;99.90;;;;;;5046852;28;20417;-75
2022/04/29 00:27:46;;;;;;;;;;;9.10;99.90;;;;;;5044360;28;19932;-74
2022/04/29 00:30:13;;;;;;;;;;;9.00;99.90;;;;;;5055716;28;20612;-75
2022/04/29 00:32:40;;;;;;;;;;;;;;;;;;5035648;28;19932;-73
2022/04/29 00:35:07;;;;;;;;;;;;;;;;;;5048446;28;19951;-73
2022/04/29 00:37:34;;;;;;;;;;;;;;;;;;5054696;28;20030;-73
2022/04/29 00:40:01;;;;;;;;;;;8.90;99.90;;;;;;5050542;28;19924;-73
2022/04/29 00:42:28;;;;;;;;;;;9.00;99.90;;;;;;5053129;28;19924;-73
2022/04/29 00:44:56;;;;;;;;;;;8.90;99.90;;;;;;5043674;28;19925;-74
2022/04/29 00:47:23;;;;;;;;;;;8.90;99.90;;;;;;5047812;28;20481;-73
2022/04/29 00:49:50;;;;;;;;;;;8.80;99.90;;;;;;5045167;28;19962;-73
2022/04/29 00:52:18;;;;;;;;;;;8.80;99.90;;;;;;5049257;28;19944;-74
2022/04/29 00:54:45;;;;;;;;;;;;;;;;;;5042072;28;20031;-74
2022/04/29 00:57:12;;;;;;;;;;;;;;;;;;5046878;28;19966;-74
2022/04/29 00:59:39;;;;;;;;;;;;;;;;;;5041796;28;19925;-74
2022/04/29 01:02:06;;;;;;;;;;;;;;;;;;5042908;28;19990;-73
2022/04/29 01:04:33;;;;;;;;;;;;;;;;;;5044530;28;19986;-72
2022/04/29 01:07:01;;;;;;;;;;;;;;;;;;5045627;28;19971;-74
2022/04/29 01:09:28;;;;;;;;;;;;;;;;;;5045257;28;19932;-75
2022/04/29 01:11:55;;;;;;;;;;;;;;;;;;5045005;28;20317;-75
2022/04/29 01:14:23;;;;;;;;;;;8.50;99.90;;;;;;5043678;28;19936;-75
2022/04/29 01:16:50;;;;;;;;;;;8.50;99.90;;;;;;5043545;28;19932;-75
2022/04/29 01:19:17;;;;;;;;;;;;;;;;;;5058796;28;19984;-76
2022/04/29 01:21:44;;;;;;;;;;;8.50;99.90;;;;;;5044583;28;19929;-75
2022/04/29 01:24:12;;;;;;;;;;;8.50;99.90;;;;;;5042753;28;19924;-76
2022/04/29 01:26:38;;;;;;;;;;;8.60;99.90;;;;;;5043291;28;19977;-75
2022/04/29 01:29:07;;;;;;;;;;;8.60;99.90;;;;;;5045507;28;19970;-73
2022/04/29 01:31:34;;;;;;;;;;;;;;;;;;5060241;28;19955;-75
2022/04/29 01:34:02;;;;;;;;;;;;;;;;;;5036289;28;19970;-74
2022/04/29 01:36:29;;;;;;;;;;;8.60;99.90;;;;;;5045136;28;19971;-75
2022/04/29 01:38:56;;;;;;;;;;;;;;;;;;5063152;28;19959;-75
2022/04/29 01:41:24;;;;;;;;;;;8.70;99.90;;;;;;5054886;28;20082;-74
2022/04/29 01:43:51;;;;;;;;;;;8.70;99.90;;;;;;5041030;28;20068;-75
2022/04/29 01:46:18;;;;;;;;;;;;;;;;;;5056075;28;19960;-74
2022/04/29 01:48:45;;;;;;;;;;;;;;;;;;5049398;28;19929;-75
2022/04/29 01:51:15;;;;;;;;;;;;;;;;;;5041026;28;19951;-75
2022/04/29 01:53:42;;;;;;;;;;;;;;;;;;5057928;28;19933;-75
2022/04/29 01:56:10;;;;;;;;;;;8.80;99.90;;;;;;5043256;28;19964;-75
2022/04/29 01:58:38;;;;;;;;;;;8.80;99.90;;;;;;5058005;28;20356;-75
2022/04/29 02:01:07;;;;;;;;;;;;;;;;;;5042413;28;19929;-75
2022/04/29 02:03:35;;;;;;;;;;;;;;;;;;5049338;28;20382;-74
2022/04/29 02:06:02;;;;;;;;;;;8.80;99.90;;;;;;5039993;28;19929;-74
2022/04/29 02:08:28;;;;;;;;;;;8.90;99.90;;;;;;5033680;28;20398;-75
2022/04/29 02:10:56;;;;;;;;;;;;;;;;;;5037935;28;19929;-74
2022/04/29 02:13:26;;;;;;;;;;;8.90;99.90;;;;;;5031988;28;19979;-74
2022/04/29 02:16:16;;;;;;;;;;;;;;;;;;5056091;28;19929;-75
2022/04/29 02:18:44;;;;;;;;;;;;;;;;;;5060757;28;19979;-75
2022/04/29 02:21:11;;;;;;;;;;;;;;;;;;5052934;28;20357;-75
2022/04/29 02:23:38;;;;;;;;;;;;;;;;;;5043243;28;19928;-74
2022/04/29 02:26:07;;;;;;;;;;;8.90;99.90;;;;;;5038858;28;20745;-75
2022/04/29 02:28:34;;;;;;;;;;;8.80;99.90;;;;;;5052919;28;19932;-74
2022/04/29 02:31:02;;;;;;;;;;;8.80;99.90;;;;;;5045696;28;19925;-75
2022/04/29 02:33:29;;;;;;;;;;;8.80;99.90;;;;;;5055870;28;19925;-74
2022/04/29 02:35:56;;;;;;;;;;;;;;;;;;5046148;28;19928;-75
2022/04/29 02:38:23;;;;;;;;;;;;;;;;;;5052795;28;19924;-74
2022/04/29 02:40:51;;;;;;;;;;;8.70;99.90;;;;;;5049410;28;20418;-74
2022/04/29 02:43:19;;;;;;;;;;;8.60;99.90;;;;;;5043595;28;20380;-75
2022/04/29 02:45:47;;;;;;;;;;;8.60;99.90;;;;;;5033837;28;19933;-74
2022/04/29 02:48:14;;;;;;;;;;;;;;;;;;5040534;28;19928;-75
2022/04/29 02:50:41;;;;;;;;;;;8.60;99.90;;;;;;5039351;28;20022;-74
2022/04/29 02:53:08;;;;;;;;;;;8.50;99.90;;;;;;5042101;28;20301;-75
2022/04/29 02:55:35;;;;;;;;;;;;;;;;;;5040364;28;19979;-73
2022/04/29 02:58:11;;;;;;;;;;;;;;;;;;5039841;28;19927;-73
2022/04/29 03:00:39;;;;;;;;;;;;;;;;;;5047259;28;19924;-73
2022/04/29 03:03:06;;;;;;;;;;;;;;;;;;5037607;28;19924;-72
2022/04/29 03:05:35;;;;;;;;;;;8.50;99.90;;;;;;5038881;28;20714;-72
2022/04/29 03:08:02;;;;;;;;;;;;;;;;;;5039166;28;19920;-72
2022/04/29 03:10:30;;;;;;;;;;;;;;;;;;5038709;28;19935;-73
2022/04/29 03:12:57;;;;;;;;;;;8.50;99.90;;;;;;5038701;28;19932;-72
2022/04/29 03:15:36;;;;;;;;;;;8.50;99.90;;;;;;5049497;22;19924;-82
2022/04/29 03:20:48;;;;;;;;;;;;;;;;;;5053737;28;19912;-83
2022/04/29 03:23:16;;;;;;;;;;;;;;;;;;5054107;28;19924;-83
2022/04/29 03:25:50;;;;;;;;;;;;;;;;;;5053342;28;19924;-83
2022/04/29 03:28:17;;;;;;;;;;;;;;;;;;5053421;28;19924;-83
2022/04/29 03:30:45;;;;;;;;;;;;;;;;;;5070858;28;19925;-83
2022/04/29 03:33:13;;;;;;;;;;;8.30;99.90;;;;;;5052475;28;19921;-83
2022/04/29 03:35:42;;;;;;;;;;;8.30;99.90;;;;;;5052301;28;19932;-83
2022/04/29 03:38:12;;;;;;;;;;;8.30;99.90;;;;;;5046005;28;20656;-83
2022/04/29 03:40:41;;;;;;;;;;;;;;;;;;5048235;28;19921;-84
2022/04/29 03:43:07;;;;;;;;;;;8.20;99.90;;;;;;5056694;28;19921;-83
2022/04/29 03:45:35;;;;;;;;;;;8.20;99.90;;;;;;5068356;28;19946;-84
2022/04/29 03:48:04;;;;;;;;;;;8.20;99.90;;;;;;5073113;28;19963;-84
2022/04/29 03:50:44;;;;;;;;;;;;;;;;;;5061423;28;19924;-85
2022/04/29 03:53:13;;;;;;;;;;;;;;;;;;5051632;28;19924;-83
2022/04/29 03:55:49;;;;;;;;;;;8.10;99.90;;;;;;5048920;28;19950;-84
2022/04/29 03:58:17;;;;;;;;;;;;;;;;;;5047393;28;19924;-84
2022/04/29 04:00:52;;;;;;;;;;;8.00;99.90;;;;;;5052277;28;19920;-83
2022/04/29 04:03:44;;;;;;;;;;;;;;;;;;5057461;28;19924;-85
2022/04/29 04:09:02;;;;;;;;;;;;;;;;;;5052783;28;19962;-83
2022/04/29 04:11:33;;;;;;;;;;;7.90;99.90;;;;;;5052562;28;19927;-84
2022/04/29 04:14:00;;;;;;;;;;;;;;;;;;5053265;28;19932;-85
2022/04/29 04:16:33;;;;;;;;;;;;;;;;;;5077385;28;19921;-86
2022/04/29 04:19:00;;;;;;;;;;;;;;;;;;5064443;28;19996;-85
2022/04/29 04:21:27;;;;;;;;;;;7.90;99.90;;;;;;5060764;28;19920;-86
2022/04/29 04:23:54;;;;;;;;;;;;;;;;;;5087271;28;19924;-86
2022/04/29 04:26:22;;;;;;;;;;;7.90;99.90;;;;;;5066327;28;20354;-86
2022/04/29 04:28:51;;;;;;;;;;;7.90;99.90;;;;;;5056936;28;19924;-85
2022/04/29 04:31:21;;;;;;;;;;;7.90;99.90;;;;;;5070164;28;19997;-87
2022/04/29 04:33:54;;;;;;;;;;;;;;;;;;5067845;28;19928;-86
2022/04/29 04:36:22;;;;;;;;;;;;;;;;;;5060272;28;19924;-87
2022/04/29 04:38:51;;;;;;;;;;;10.70;99.90;;;;;;5055791;28;20326;-87
2022/04/29 04:41:25;;;;;;;;;;;8.00;99.90;;;;;;4975104;28;19924;-88
2022/04/29 04:44:03;;;;;;;;;;;8.00;99.90;;;;;;4973815;28;20387;-87
2022/04/29 04:46:32;;;;;;;;;;;8.00;99.90;;;;;;4979408;28;20061;-87
2022/04/29 04:49:27;;;;;;;;;;;8.00;99.90;;;;;;4983128;28;19924;-87
2022/04/29 04:52:19;;;;;;;;;;;7.90;99.90;;;;;;4970532;28;19929;-86
2022/04/29 04:54:54;;;;;;;;;;;8.10;99.90;;;;;;4971643;28;19924;-86
2022/04/29 04:57:24;;;;;;;;;;;;;;;;;;4987610;28;20007;-86
2022/04/29 04:59:54;;;;;;;;;;;;;;;;;;5057555;28;19926;-86
2022/04/29 05:02:26;;;;;;;;;;;8.20;99.90;;;;;;5070161;28;20047;-86
2022/04/29 05:05:35;;;;;;;;;;;;;;;;;;5162600;22;19924;-87
2022/04/29 05:08:42;;;;;;;;;;;8.20;99.90;;;;;;5074230;28;20060;-87
2022/04/29 05:11:19;;;;;;;;;;;8.20;99.90;;;;;;5084486;28;19931;-87
2022/04/29 05:17:29;;;;;;;;;;;8.40;99.90;;;;;;5047959;28;20273;-86
2022/04/29 05:20:11;;;;;;;;;;;8.40;99.90;;;;;;5054088;28;19925;-87
2022/04/29 05:22:41;;;;;;;;;;;8.50;99.90;;;;;;5065392;28;19924;-84
2022/04/29 05:25:12;;;;;;;;;;;8.60;99.90;;;;;;5065961;28;19965;-85
2022/04/29 05:28:01;;;;;;;;;;;8.80;99.90;;;;;;5046468;28;20746;-88
2022/04/29 05:31:00;;;;;;;;;;;8.80;99.90;;;;;;5048779;28;19920;-87
2022/04/29 05:33:45;;;;;;;;;;;9.30;99.90;;;;;;5049064;28;20006;-88
2022/04/29 05:36:32;;;;;;;;;;;9.40;99.90;;;;;;5046880;28;19994;-87
2022/04/29 05:42:15;;;;;;;;;;;9.90;99.90;;;;;;5048427;28;19991;-88
2022/04/29 05:44:43;;;;;;;;;;;10.40;99.90;;;;;;5047516;28;20015;-88
2022/04/29 05:47:10;;;;;;;;;;;10.40;99.90;;;;;;5039551;28;20361;-89
2022/04/29 05:49:37;;;;;;;;;;;10.70;99.90;;;;;;5043326;28;19960;-89
2022/04/29 05:52:08;;;;;;;;;;;11.10;99.90;;;;;;5044652;28;19925;-88
2022/04/29 05:54:37;;;;;;;;;;;11.80;99.90;;;;;;5056201;28;19924;-89
2022/04/29 05:57:04;;;;;;;;;;;11.80;99.90;;;;;;5067781;28;19924;-88
2022/04/29 05:59:31;;;;;;;;;;;12.10;99.90;;;;;;5052706;28;19947;-88
2022/04/29 06:02:06;;;;;;;;;;;12.20;99.90;;;;;;5050523;28;19924;-89
2022/04/29 06:04:40;;;;;;;;;;;12.00;99.90;;;;;;5070258;28;20027;-88
2022/04/29 06:07:17;;;;;;;;;;;12.10;99.90;;;;;;5051123;28;19971;-89
2022/04/29 06:09:47;;;;;;;;;;;11.90;99.90;;;;;;5056625;28;19935;-88
2022/04/29 06:12:15;;;;;;;;;;;11.80;99.90;;;;;;5061629;28;19921;-86
2022/04/29 06:14:45;;;;;;;;;;;11.70;99.90;;;;;;5055086;28;20000;-86
2022/04/29 06:17:16;;;;;;;;;;;11.80;99.90;;;;;;5055773;28;20265;-86
2022/04/29 06:20:18;;;;;;;;;;;11.70;99.90;;;;;;5033401;28;19925;-87
2022/04/29 06:23:08;;;;;;;;;;;11.60;99.90;;;;;;5051701;28;19924;-87
2022/04/29 06:25:37;;;;;;;;;;;11.60;99.90;;;;;;5070442;28;19924;-87
2022/04/29 06:28:04;;;;;;;;;;;11.50;99.90;;;;;;5050765;28;19924;-86
2022/04/29 06:30:32;;;;;;;;;;;11.50;99.90;;;;;;5052920;28;19932;-87
2022/04/29 06:33:16;;;;;;;;;;;11.50;99.90;;;;;;5057384;28;20033;-87
2022/04/29 06:35:47;;;;;;;;;;;11.60;99.90;;;;;;5058671;28;19990;-86
2022/04/29 06:38:16;;;;;;;;;;;11.70;99.90;;;;;;5073435;28;19921;-88
2022/04/29 06:40:56;;;;;;;;;;;12.00;99.90;;;;;;5073243;28;19924;-87
2022/04/29 06:43:29;;;;;;;;;;;12.00;99.90;;;;;;5050511;28;20023;-89
2022/04/29 06:46:17;;;;;;;;;;;12.30;99.90;;;;;;5044153;28;19932;-87
2022/04/29 06:49:04;;;;;;;;;;;12.40;99.90;;;;;;5035743;28;19920;-87
2022/04/29 06:51:50;;;;;;;;;;;12.50;99.90;;;;;;5055240;28;19931;-87
2022/04/29 06:54:23;;;;;;;;;;;12.90;99.90;;;;;;5066660;28;19924;-88
2022/04/29 06:56:59;;;;;;;;;;;13.40;99.90;;;;;;5068142;28;19992;-86
2022/04/29 06:59:26;;;;;;;;;;;13.90;99.90;;;;;;5082408;28;19909;-87
2022/04/29 07:01:53;;;;;;;;;;;15.50;99.90;;;;;;5085030;28;19920;-85
2022/04/29 07:04:20;;;;;;;;;;;15.40;99.90;;;;;;5087761;28;19959;-85
2022/04/29 07:06:52;;;;;;;;;;;15.60;99.90;;;;;;5068136;28;19932;-86
2022/04/29 07:09:19;;;;;;;;;;;16.00;99.90;;;;;;5081417;28;19959;-85
2022/04/29 07:12:22;;;;;;;;;;;16.50;99.90;;;;;;5060730;28;19986;-86
2022/04/29 07:14:57;;;;;;;;;;;17.00;99.90;;;;;;5054272;28;19929;-87
2022/04/29 07:17:25;;;;;;;;;;;17.70;99.90;;;;;;5052286;28;20027;-86
2022/04/29 07:19:56;;;;;;;;;;;18.10;99.90;;;;;;5071914;28;19930;-86
2022/04/29 07:22:24;;;;;;;;;;;18.40;99.90;;;;;;5065771;28;19951;-86
2022/04/29 07:24:53;;;;;;;;;;;18.60;99.90;;;;;;5055067;28;19929;-85
2022/04/29 07:27:22;;;;;;;;;;;18.60;99.90;;;;;;5059706;28;19925;-86
2022/04/29 07:29:49;;;;;;;;;;;18.60;99.90;;;;;;5048566;28;19932;-86
2022/04/29 07:32:28;;;;;;;;;;;18.40;99.90;;;;;;5047240;28;19931;-86
2022/04/29 07:43:26;;;;;;;;;;;17.00;99.90;;;;;;5047395;28;19932;-85
2022/04/29 07:45:54;;;;;;;;;;;16.80;99.90;;;;;;5069244;28;19978;-86
2022/04/29 07:48:29;;;;;;;;;;;16.50;99.90;;;;;;5070364;28;19947;-86
2022/04/29 07:51:00;;;;;;;;;;;16.20;99.90;;;;;;5074816;28;19920;-86
2022/04/29 07:53:28;;;;;;;;;;;15.30;99.90;;;;;;5072417;28;19935;-85
2022/04/29 07:55:57;;;;;;;;;;;14.90;99.90;;;;;;5085842;28;19928;-86
2022/04/29 07:58:25;;;;;;;;;;;14.70;99.90;;;;;;5065678;28;19920;-85
2022/04/29 08:00:53;;;;;;;;;;;14.60;99.90;;;;;;5094698;28;19920;-86
2022/04/29 08:03:21;;;;;;;;;;;17.20;99.90;;;;;;5073375;28;19909;-86
2022/04/29 08:05:55;;;;;;;;;;;14.30;99.90;;;;;;5091046;28;19922;-86
2022/04/29 08:08:23;;;;;;;;;;;14.20;99.90;;;;;;5074127;28;19939;-86
2022/04/29 08:10:53;;;;;;;;;;;14.20;99.90;;;;;;5073439;28;19920;-85
2022/04/29 08:13:20;;;;;;;;;;;14.10;99.90;;;;;;5074211;28;19908;-85
2022/04/29 08:16:22;;;;;;;;;;;14.00;99.90;;;;;;5075141;28;19908;-86
2022/04/29 08:19:25;;;;;;;;;;;14.00;99.90;;;;;;5054710;28;20000;-85
2022/04/29 08:22:08;;;;;;;;;;;14.10;99.90;;;;;;5070569;28;19915;-85
2022/04/29 08:24:42;;;;;;;;;;;14.20;99.90;;;;;;5075156;28;19967;-85
2022/04/29 08:27:11;;;;;;;;;;;14.40;99.90;;;;;;5075628;28;19920;-86
2022/04/29 08:29:43;;;;;;;;;;;14.70;99.90;;;;;;5091911;28;19917;-85
2022/04/29 08:32:13;;;;;;;;;;;14.70;99.90;;;;;;5091208;28;19943;-86
2022/04/29 08:34:45;;;;;;;;;;;14.90;99.90;;;;;;5090048;28;19920;-85
2022/04/29 08:37:13;;;;;;;;;;;14.90;99.90;;;;;;5096079;28;19984;-86
2022/04/29 08:39:43;;;;;;;;;;;15.00;99.90;;;;;;5089451;28;19920;-85
2022/04/29 08:42:11;;;;;;;;;;;15.10;99.90;;;;;;5074668;28;19909;-87
2022/04/29 08:44:40;;;;;;;;;;;15.50;99.90;;;;;;5082945;28;19909;-85
2022/04/29 08:47:36;;;;;;;;;;;15.90;99.90;;;;;;5074892;28;19996;-85
2022/04/29 08:50:14;;;;;;;;;;;16.60;99.90;;;;;;5063683;28;20346;-85
2022/04/29 08:52:41;;;;;;;;;;;17.20;99.90;;;;;;5054214;28;19976;-86
2022/04/29 09:00:39;;;;;;;;;;;19.10;99.90;;;;;;5043296;28;19920;-86
2022/04/29 09:03:11;;;;;;;;;;;19.20;99.90;;;;;;5045780;28;19975;-86
2022/04/29 09:05:39;;;;;;;;;;;19.20;99.90;;;;;;5065869;28;20432;-84
2022/04/29 09:08:06;;;;;;;;;;;20.40;99.90;;;;;;5072955;28;19932;-84
2022/04/29 09:10:34;;;;;;;;;;;18.70;99.90;;;;;;5067121;28;19921;-86
2022/04/29 09:13:10;;;;;;;;;;;20.60;99.90;;;;;;5051219;28;19932;-86
2022/04/29 09:15:39;;;;;;;;;;;19.50;99.90;;;;;;5056290;28;19950;-87
2022/04/29 09:18:06;;;;;;;;;;;19.60;99.90;;;;;;5058974;28;19926;-86
2022/04/29 09:20:35;;;;;;;;;;;19.60;99.90;;;;;;5069633;28;19961;-86
2022/04/29 09:23:03;;;;;;;;;;;19.60;99.90;;;;;;5057470;28;19925;-86
2022/04/29 09:26:20;;;;;;;;;;;19.80;99.90;;;;;;5067369;28;20034;-86
2022/04/29 09:29:11;;;;;;;;;;;19.80;99.90;;;;;;5069088;28;19925;-86
2022/04/29 09:31:53;;;;;;;;;;;19.80;99.90;;;;;;5070853;28;19928;-86
2022/04/29 09:35:00;;;;;;;;;;;18.80;99.90;;;;;;5055205;28;19932;-85
2022/04/29 09:37:30;;;;;;;;;;;18.80;99.90;;;;;;5052784;28;20395;-85
2022/04/29 09:40:00;;;;;;;;;;;19.90;99.90;;;;;;5045115;28;19925;-84
2022/04/29 09:42:36;;;;;;;;;;;20.20;99.90;;;;;;5054770;28;20054;-84
2022/04/29 09:45:11;;;;;;;;;;;19.10;99.90;;;;;;5049556;28;19921;-85
2022/04/29 09:47:39;;;;;;;;;;;19.20;99.90;;;;;;5074471;28;19946;-85
2022/04/29 09:50:07;;;;;;;;;;;19.40;99.90;;;;;;5066367;28;19917;-84
2022/04/29 09:52:39;;;;;;;;;;;19.60;99.90;;;;;;5081532;28;19924;-85
2022/04/29 09:55:10;;;;;;;;;;;19.50;99.90;;;;;;5079914;28;19921;-87
2022/04/29 09:57:47;;;;;;;;;;;19.50;99.90;;;;;;5066687;28;19931;-85
2022/04/29 10:00:16;;;;;;;;;;;19.20;99.90;;;;;;5064049;28;19921;-85
2022/04/29 10:02:43;;;;;;;;;;;19.20;99.90;;;;;;5055549;28;20333;-85
2022/04/29 10:05:11;;;;;;;;;;;18.80;99.90;;;;;;5055061;28;19921;-85
2022/04/29 10:07:42;;;;;;;;;;;18.90;99.90;;;;;;5068249;28;19929;-86
2022/04/29 10:10:11;;;;;;;;;;;19.10;99.90;;;;;;5063593;28;20011;-85
2022/04/29 10:12:38;;;;;;;;;;;19.30;99.90;;;;;;5057326;28;19948;-86
2022/04/29 10:15:27;;;;;;;;;;;19.70;99.90;;;;;;5066253;28;19925;-83
2022/04/29 10:21:17;;;;;;;;;;;20.30;99.90;;;;;;5058393;28;20450;-83
2022/04/29 10:23:55;;;;;;;;;;;20.40;99.90;;;;;;5049318;28;19970;-84
2022/04/29 10:26:27;;;;;;;;;;;20.60;99.90;;;;;;5045671;28;20425;-84
2022/04/29 10:28:55;;;;;;;;;;;21.00;99.90;;;;;;5054834;28;20019;-84
2022/04/29 10:31:24;;;;;;;;;;;20.80;99.90;;;;;;5057588;28;20266;-84
2022/04/29 10:33:51;;;;;;;;;;;20.80;99.90;;;;;;5048978;28;19925;-84
2022/04/29 10:36:24;;;;;;;;;;;20.40;99.90;;;;;;5050803;28;19932;-85
2022/04/29 10:39:00;;;;;;;;;;;20.40;99.90;;;;;;5057089;28;19970;-84
2022/04/29 10:41:27;;;;;;;;;;;20.30;99.80;;;;;;5063986;28;19932;-85
2022/04/29 10:44:05;;;;;;;;;;;20.30;99.90;;;;;;5067114;28;19928;-84
2022/04/29 10:46:32;;;;;;;;;;;19.70;99.90;;;;;;5056041;28;20270;-84
2022/04/29 10:49:31;;;;;;;;;;;20.00;99.90;;;;;;5014124;28;20496;-83
2022/04/29 10:52:05;;;;;;;;;;;20.00;99.90;;;;;;5048958;28;19928;-83
2022/04/29 10:54:48;;;;;;;;;;;20.70;99.90;;;;;;5045055;28;20429;-84
2022/04/29 10:57:47;;;;;;;;;;;20.70;99.90;;;;;;5045168;28;19921;-83
2022/04/29 11:00:24;;;;;;;;;;;20.30;98.00;;;;;;5061234;28;19928;-83
2022/04/29 11:02:55;;;;;;;;;;;19.80;98.20;;;;;;5048989;28;20450;-82
2022/04/29 11:05:38;;;;;;;;;;;19.60;98.80;;;;;;5051302;28;19924;-82
2022/04/29 11:08:08;;;;;;;;;;;19.50;98.40;;;;;;5052183;28;19968;-82
2022/04/29 11:10:35;;;;;;;;;;;;;;;;;;5052556;28;20397;-84
2022/04/29 11:13:03;;;;;;;;;;;19.30;98.60;;;;;;5055136;28;19924;-84
2022/04/29 11:15:51;;;;;;;;;;;19.40;98.90;;;;;;5043910;28;19964;-85
2022/04/29 11:18:42;;;;;;;;;;;19.60;98.60;;;;;;5054741;28;19993;-86
2022/04/29 11:26:43;;;;;;;;;;;19.30;97.40;;;;;;5045980;28;20309;-83
2022/04/29 11:29:11;;;;;;;;;;;19.10;97.30;;;;;;5058636;28;19925;-84
2022/04/29 11:31:56;;;;;;;;;;;18.90;97.70;;;;;;5061860;28;20388;-83
2022/04/29 11:34:23;;;;;;;;;;;;;;;;;;5046238;28;19936;-83
2022/04/29 11:36:56;;;;;;;;;;;19.10;98.10;;;;;;5052336;28;19947;-84
2022/04/29 11:39:23;;;;;;;;;;;19.40;98.00;;;;;;5037306;28;19924;-83
2022/04/29 11:41:54;;;;;;;;;;;19.50;97.50;;;;;;5043653;28;20385;-84
2022/04/29 11:44:33;;;;;;;;;;;19.70;97.30;;;;;;5061241;28;19925;-84
2022/04/29 11:47:00;;;;;;;;;;;19.60;97.00;;;;;;5053553;28;20019;-84
2022/04/29 11:49:32;;;;;;;;;;;19.50;96.80;;;;;;5047704;28;19995;-84
2022/04/29 11:52:13;;;;;;;;;;;19.50;97.50;;;;;;5073370;28;19931;-84
2022/04/29 11:54:48;;;;;;;;;;;19.80;97.20;;;;;;5061906;28;19926;-83
2022/04/29 11:57:15;;;;;;;;;;;19.80;96.30;;;;;;5047841;28;20012;-84
2022/04/29 11:59:43;;;;;;;;;;;;;;;;;;5056349;28;19932;-85
2022/04/29 12:02:12;;;;;;;;;;;19.60;96.50;;;;;;5056497;28;19933;-83
2022/04/29 12:04:51;;;;;;;;;;;19.80;96.70;;;;;;5062745;28;20569;-84
2022/04/29 12:07:18;;;;;;;;;;;19.90;96.20;;;;;;5046451;28;20271;-84
2022/04/29 12:09:45;;;;;;;;;;;19.90;95.40;;;;;;5063691;28;19938;-84
2022/04/29 12:12:23;;;;;;;;;;;19.80;95.40;;;;;;5064966;28;19921;-84
2022/04/29 12:14:50;;;;;;;;;;;;;;;;;;5048641;28;20264;-83
2022/04/29 12:17:17;;;;;;;;;;;;;;;;;;5048842;28;19940;-83
2022/04/29 12:19:49;;;;;;;;;;;;;;;;;;5062383;28;19928;-84
2022/04/29 12:22:29;;;;;;;;;;;19.60;95.20;;;;;;5047715;28;20035;-83
2022/04/29 12:24:56;;;;;;;;;;;19.60;95.40;;;;;;5052395;28;20408;-83
2022/04/29 12:27:25;;;;;;;;;;;;;;;;;;5058094;28;19928;-84
2022/04/29 12:35:18;;;;;;;;;;;;;;;;;;5055149;28;19921;-84
2022/04/29 12:37:52;;;;;;;;;;;20.20;94.70;;;;;;5070864;28;19943;-86
2022/04/29 12:40:26;;;;;;;;;;;20.10;94.20;;;;;;5068857;28;19921;-84
2022/04/29 12:42:54;;;;;;;;;;;;;;;;;;5055529;28;19921;-84
2022/04/29 12:45:25;;;;;;;;;;;20.30;94.30;;;;;;5082117;28;19921;-84
2022/04/29 12:47:54;;;;;;;;;;;;;;;;;;5064941;28;19929;-84
2022/04/29 12:50:25;;;;;;;;;;;20.40;93.80;;;;;;5066140;28;19991;-84
2022/04/29 12:52:57;;;;;;;;;;;20.30;93.80;;;;;;5076738;28;19921;-84
2022/04/29 12:55:24;;;;;;;;;;;;;;;;;;5051302;28;19925;-84
2022/04/29 12:57:51;;;;;;;;;;;;;;;;;;5070220;28;20026;-84
2022/04/29 13:00:18;;;;;;;;;;;;;;;;;;5052717;28;19947;-83
2022/04/29 13:02:46;;;;;;;;;;;;;;;;;;5049780;28;20023;-84
2022/04/29 13:05:13;;;;;;;;;;;;;;;;;;5051079;28;19933;-83
2022/04/29 13:07:48;;;;;;;;;;;19.40;94.20;;;;;;5068347;28;19933;-83
2022/04/29 13:10:17;;;;;;;;;;;;;;;;;;5055540;28;19974;-86
2022/04/29 13:12:45;;;;;;;;;;;;;;;;;;5068297;28;20223;-85
2022/04/29 13:15:41;;;;;;;;;;;18.70;94.70;;;;;;5047072;28;19927;-83
2022/04/29 13:18:11;;;;;;;;;;;18.70;95.00;;;;;;5055027;28;19947;-84
2022/04/29 13:20:38;;;;;;;;;;;18.70;95.00;;;;;;5050496;28;19940;-85
2022/04/29 13:23:05;;;;;;;;;;;18.70;95.00;;;;;;5048694;28;19990;-85
2022/04/29 13:25:35;;;;;;;;;;;18.70;95.10;;;;;;5051783;28;20030;-85
2022/04/29 13:28:02;;;;;;;;;;;18.50;94.80;;;;;;5060333;28;19999;-85
2022/04/29 13:30:29;;;;;;;;;;;;;;;;;;5049675;28;19921;-86
2022/04/29 13:32:56;;;;;;;;;;;;;;;;;;5046572;28;19925;-85
2022/04/29 13:35:25;;;;;;;;;;;18.10;95.80;;;;;;5047750;28;20211;-85
2022/04/29 13:37:51;;;;;;;;;;;18.10;95.70;;;;;;5045917;28;19925;-85
2022/04/29 13:40:19;;;;;;;;;;;18.00;95.80;;;;;;5047762;28;19968;-85
2022/04/29 13:42:46;;;;;;;;;;;;;;;;;;5047049;28;20035;-85
2022/04/29 13:45:13;;;;;;;;;;;17.90;96.00;;;;;;5054893;28;20404;-88
2022/04/29 13:47:41;;;;;;;;;;;17.90;96.40;;;;;;5079763;28;20360;-84
2022/04/29 13:50:09;;;;;;;;;;;18.10;96.60;;;;;;5060685;28;19955;-86
2022/04/29 13:55:22;;;;;;;;;;;;;;;;;;5069117;28;19948;-86
2022/04/29 13:57:49;;;;;;;;;;;;;;;;;;5079082;28;19942;-86
2022/04/29 14:00:17;;;;;;;;;;;;;;;;;;5061795;28;19916;-86
2022/04/29 14:02:44;;;;;;;;;;;18.60;96.30;;;;;;5066451;28;19924;-85
2022/04/29 14:05:11;;;;;;;;;;;;;;;;;;5065155;28;19952;-85
2022/04/29 14:07:39;;;;;;;;;;;18.60;96.20;;;;;;5070368;28;19981;-87
2022/04/29 14:10:07;;;;;;;;;;;18.50;96.20;;;;;;5085653;28;20324;-85
2022/04/29 14:12:34;;;;;;;;;;;;;;;;;;5064505;28;19925;-87
2022/04/29 14:15:01;;;;;;;;;;;18.50;96.60;;;;;;5061747;28;19952;-85
2022/04/29 14:17:29;;;;;;;;;;;18.70;96.60;;;;;;5074433;28;19929;-85
2022/04/29 14:19:56;;;;;;;;;;;;;;;;;;5048449;28;20017;-85
2022/04/29 14:22:24;;;;;;;;;;;18.50;95.60;;;;;;5048695;28;19947;-85
2022/04/29 14:24:53;;;;;;;;;;;18.20;95.90;;;;;;5053721;28;19931;-86
2022/04/29 14:27:20;;;;;;;;;;;;;;;;;;5066072;28;20503;-85
2022/04/29 14:29:48;;;;;;;;;;;18.30;96.30;;;;;;5050024;28;19935;-85
2022/04/29 14:32:15;;;;;;;;;;;18.40;96.00;;;;;;5072242;28;19980;-84
2022/04/29 14:34:43;;;;;;;;;;;;;;;;;;5061668;28;19921;-86
2022/04/29 14:37:09;;;;;;;;;;;18.20;95.90;;;;;;5080658;28;19940;-85
2022/04/29 14:39:36;;;;;;;;;;;18.40;96.30;;;;;;5063658;28;19916;-87
2022/04/29 14:42:03;;;;;;;;;;;;;;;;;;5057955;28;19920;-84
2022/04/29 14:44:32;;;;;;;;;;;18.30;95.90;;;;;;5056909;28;20019;-86
2022/04/29 14:47:00;;;;;;;;;;;18.30;95.70;;;;;;5056948;28;19935;-86
2022/04/29 14:49:28;;;;;;;;;;;18.30;95.60;;;;;;5065390;28;20569;-88
2022/04/29 14:51:55;;;;;;;;;;;18.20;95.80;;;;;;5086964;28;19912;-85
2022/04/29 14:54:24;;;;;;;;;;;;;;;;;;5068396;28;19921;-88
2022/04/29 14:56:53;;;;;;;;;;;18.50;96.00;;;;;;5072721;28;19908;-88
2022/04/29 14:59:20;;;;;;;;;;;18.50;95.70;;;;;;5067478;28;20089;-88
2022/04/29 15:01:51;;;;;;;;;;;;;;;;;;5069575;28;19925;-87
2022/04/29 15:04:19;;;;;;;;;;;19.10;95.70;;;;;;5067870;28;19984;-85
2022/04/29 15:06:46;;;;;;;;;;;19.40;95.70;;;;;;5084657;28;19992;-90
2022/04/29 15:15:38;;;;;;;;;;;18.90;94.80;;;;;;5059145;28;19960;-86
2022/04/29 15:18:06;;;;;;;;;;;19.20;95.00;;;;;;5056830;28;19978;-87
2022/04/29 15:20:37;;;;;;;;;;;19.20;94.40;;;;;;5054880;28;19925;-86
2022/04/29 15:23:12;;;;;;;;;;;19.30;94.90;;;;;;5055262;28;20297;-86
2022/04/29 15:25:39;;;;;;;;;;;;;;;;;;5069057;28;19929;-86
2022/04/29 15:28:06;;;;;;;;;;;;;;;;;;5072090;28;20028;-86
2022/04/29 15:30:33;;;;;;;;;;;;;;;;;;5051905;28;19982;-86
2022/04/29 15:33:01;;;;;;;;;;;19.40;94.30;;;;;;5072896;28;20666;-86
2022/04/29 15:35:28;;;;;;;;;;;17.30;93.20;;;;;;5057750;28;19958;-86
2022/04/29 15:37:56;;;;;;;;;;;18.90;93.40;;;;;;5045578;28;19940;-86
2022/04/29 15:40:23;;;;;;;;;;;18.90;93.50;;;;;;5061272;28;19924;-87
2022/04/29 15:42:50;;;;;;;;;;;18.70;93.90;;;;;;5051115;28;19936;-88
2022/04/29 15:45:16;;;;;;;;;;;18.70;94.10;;;;;;5051833;28;20300;-87
2022/04/29 15:47:43;;;;;;;;;;;18.70;94.20;;;;;;5048549;28;19925;-88
2022/04/29 15:50:10;;;;;;;;;;;18.60;94.10;;;;;;5049620;28;19929;-88
2022/04/29 15:52:37;;;;;;;;;;;18.50;94.00;;;;;;5045060;28;19917;-87
2022/04/29 15:55:06;;;;;;;;;;;18.10;93.90;;;;;;5058210;28;19930;-87
2022/04/29 15:57:34;;;;;;;;;;;18.10;93.90;;;;;;5065266;28;20035;-87
2022/04/29 16:00:02;;;;;;;;;;;18.20;94.30;;;;;;5054034;28;20337;-87
2022/04/29 16:02:39;;;;;;;;;;;18.20;94.30;;;;;;5047411;28;19956;-87
2022/04/29 16:05:07;;;;;;;;;;;18.20;93.90;;;;;;5046539;28;19929;-87
2022/04/29 16:07:35;;;;;;;;;;;18.20;94.20;;;;;;5061399;28;20031;-86